createdAt,value
2023-02-12T00:01:25.566Z,3.10
2023-02-12T00:03:53.554Z,2.00
2023-02-12T00:06:21.392Z,1.20
2023-02-12T00:08:51.354Z,0.70
2023-02-12T00:11:22.676Z,1.00
2023-02-12T00:13:50.842Z,1.80
2023-02-12T00:16:22.190Z,1.00
2023-02-12T00:18:52.977Z,1.40
2023-02-12T00:21:22.391Z,0.40
2023-02-12T00:23:50.158Z,1.80
2023-02-12T00:26:20.548Z,2.10
2023-02-12T00:28:50.654Z,1.30
2023-02-12T00:31:22.284Z,1.90
2023-02-12T00:33:50.901Z,2.50
2023-02-12T00:36:24.707Z,0.30
2023-02-12T00:38:54.444Z,1.20
2023-02-12T00:43:51.163Z,1.20
2023-02-12T00:46:19.265Z,0.80
2023-02-12T00:48:47.166Z,3.30
2023-02-12T00:51:15.065Z,1.40
2023-02-12T00:53:42.901Z,1.00
2023-02-12T00:56:10.799Z,1.10
2023-02-12T00:58:38.602Z,0.90
2023-02-12T01:01:08.014Z,2.70
2023-02-12T01:03:36.934Z,1.20
2023-02-12T01:06:05.971Z,1.10
2023-02-12T01:08:33.747Z,2.00
2023-02-12T01:11:03.786Z,1.10
2023-02-12T01:13:33.708Z,1.60
2023-02-12T01:16:16.424Z,0.80
2023-02-12T01:18:45.307Z,2.60
2023-02-12T01:21:19.243Z,1.00
2023-02-12T01:23:47.307Z,1.20
2023-02-12T01:26:17.022Z,0.50
2023-02-12T01:28:48.775Z,1.40
2023-02-12T01:31:19.306Z,1.50
2023-02-12T01:33:52.283Z,1.00
2023-02-12T01:36:20.503Z,2.60
2023-02-12T01:38:50.165Z,0.90
2023-02-12T01:41:30.047Z,1.70
2023-02-12T01:44:30.908Z,1.50
2023-02-12T01:47:01.422Z,0.50
2023-02-12T01:49:37.909Z,1.40
2023-02-12T01:52:20.161Z,0.50
2023-02-12T01:54:50.372Z,1.30
2023-02-12T01:57:19.048Z,2.90
2023-02-12T01:59:51.200Z,0.70
2023-02-12T02:02:19.380Z,1.80
2023-02-12T02:04:54.602Z,1.40
2023-02-12T02:07:22.372Z,0.80
2023-02-12T02:09:50.822Z,1.40
2023-02-12T02:12:37.187Z,1.20
2023-02-12T02:15:06.153Z,2.10
2023-02-12T02:17:39.932Z,1.70
2023-02-12T02:20:26.074Z,0.50
2023-02-12T02:23:12.075Z,1.90
2023-02-12T02:26:01.181Z,1.60
2023-02-12T02:28:44.092Z,1.10
2023-02-12T02:31:35.455Z,0.40
2023-02-12T02:34:28.202Z,0.60
2023-02-12T02:37:04.018Z,1.20
2023-02-12T02:39:40.037Z,1.00
2023-02-12T02:42:10.815Z,1.50
2023-02-12T02:44:47.285Z,1.00
2023-02-12T02:47:19.150Z,0.30
2023-02-12T02:49:56.207Z,1.70
2023-02-12T02:52:37.349Z,1.30
2023-02-12T02:55:11.202Z,0.40
2023-02-12T02:57:46.581Z,1.50
2023-02-12T03:00:22.271Z,1.90
2023-02-12T03:05:30.073Z,1.80
2023-02-12T03:08:12.440Z,3.50
2023-02-12T03:10:45.782Z,0.80
2023-02-12T03:13:26.566Z,0.60
2023-02-12T03:16:06.377Z,0.70
2023-02-12T03:18:41.620Z,1.80
2023-02-12T03:21:17.940Z,0.50
2023-02-12T03:24:01.028Z,1.30
2023-02-12T03:26:42.442Z,0.70
2023-02-12T03:29:10.434Z,1.80
2023-02-12T03:32:09.721Z,1.20
2023-02-12T03:35:06.699Z,1.80
2023-02-12T03:37:43.710Z,1.30
2023-02-12T03:40:16.268Z,1.50
2023-02-12T03:43:20.793Z,1.20
2023-02-12T03:46:13.515Z,0.60
2023-02-12T03:48:56.722Z,0.50
2023-02-12T03:51:34.583Z,0.70
2023-02-12T03:54:04.390Z,1.00
2023-02-12T03:59:07.618Z,0.60
2023-02-12T04:01:36.551Z,2.10
2023-02-12T04:04:06.796Z,2.20
2023-02-12T04:06:35.379Z,1.30
2023-02-12T04:09:09.596Z,0.80
2023-02-12T04:11:59.158Z,1.00
2023-02-12T04:14:31.410Z,1.00
2023-02-12T04:17:08.967Z,1.00
2023-02-12T04:20:10.446Z,1.90
2023-02-12T04:22:50.170Z,0.50
2023-02-12T04:25:39.415Z,1.50
2023-02-12T04:28:29.544Z,1.10
2023-02-12T04:31:07.948Z,0.70
2023-02-12T04:33:47.344Z,3.40
2023-02-12T04:36:23.736Z,1.20
2023-02-12T04:38:55.532Z,1.70
2023-02-12T04:41:25.691Z,0.90
2023-02-12T04:43:53.468Z,2.00
2023-02-12T04:46:21.190Z,4.20
2023-02-12T04:48:58.625Z,2.70
2023-02-12T04:51:26.500Z,1.80
2023-02-12T04:53:54.243Z,2.30
2023-02-12T04:56:21.948Z,2.90
2023-02-12T04:58:50.527Z,3.00
2023-02-12T05:01:18.292Z,2.60
2023-02-12T05:03:46.192Z,1.30
2023-02-12T05:06:13.992Z,3.20
2023-02-12T05:08:41.701Z,1.60
2023-02-12T05:11:10.353Z,1.80
2023-02-12T05:13:38.272Z,2.60
2023-02-12T05:16:07.360Z,3.70
2023-02-12T05:18:35.800Z,3.90
2023-02-12T05:21:05.602Z,3.60
2023-02-12T05:26:05.783Z,1.90
2023-02-12T05:28:33.602Z,2.00
2023-02-12T05:31:03.548Z,2.00
2023-02-12T05:33:32.155Z,2.40
2023-02-12T05:36:10.837Z,1.40
2023-02-12T05:38:38.701Z,2.10
2023-02-12T05:41:15.160Z,3.00
2023-02-12T05:43:43.241Z,2.40
2023-02-12T05:46:12.158Z,3.60
2023-02-12T05:48:40.386Z,1.80
2023-02-12T05:51:11.967Z,2.60
2023-02-12T05:53:41.065Z,2.40
2023-02-12T05:56:11.976Z,2.50
2023-02-12T05:58:41.728Z,1.00
2023-02-12T06:03:42.751Z,2.90
2023-02-12T06:06:10.912Z,2.10
2023-02-12T06:08:39.352Z,2.60
2023-02-12T06:11:11.022Z,1.60
2023-02-12T06:13:38.779Z,1.50
2023-02-12T06:16:07.001Z,5.00
2023-02-12T06:18:37.929Z,2.30
2023-02-12T06:21:06.104Z,2.20
2023-02-12T06:23:33.876Z,2.10
2023-02-12T06:26:01.566Z,2.50
2023-02-12T06:28:29.385Z,3.10
2023-02-12T06:30:57.246Z,1.70
2023-02-12T06:33:25.021Z,2.20
2023-02-12T06:35:52.889Z,1.30
2023-02-12T06:38:20.797Z,2.60
2023-02-12T06:40:48.754Z,2.20
2023-02-12T06:43:16.550Z,1.20
2023-02-12T06:45:44.400Z,2.40
2023-02-12T06:48:12.128Z,2.70
2023-02-12T06:50:39.824Z,1.80
2023-02-12T06:53:07.584Z,3.40
2023-02-12T06:55:35.363Z,2.20
2023-02-12T06:58:03.151Z,2.00
2023-02-12T07:00:30.925Z,1.80
2023-02-12T07:02:58.856Z,1.50
2023-02-12T07:05:26.752Z,1.50
2023-02-12T07:07:54.553Z,3.00
2023-02-12T07:10:22.254Z,1.70
2023-02-12T07:12:49.946Z,1.90
2023-02-12T07:15:17.698Z,1.70
2023-02-12T07:17:45.532Z,2.00
2023-02-12T07:20:13.592Z,1.40
2023-02-12T07:22:41.430Z,1.00
2023-02-12T07:25:09.302Z,2.40
2023-02-12T07:27:38.110Z,2.10
2023-02-12T07:30:07.456Z,3.40
2023-02-12T07:32:35.596Z,2.80
2023-02-12T07:35:03.434Z,1.90
2023-02-12T07:37:31.224Z,2.20
2023-02-12T07:39:58.953Z,2.10
2023-02-12T07:42:26.709Z,2.00
2023-02-12T07:44:54.400Z,3.00
2023-02-12T07:47:22.276Z,2.70
2023-02-12T07:49:50.139Z,1.70
2023-02-12T07:52:17.976Z,1.40
2023-02-12T07:54:45.750Z,1.40
2023-02-12T07:57:13.545Z,3.10
2023-02-12T07:59:41.308Z,2.10
2023-02-12T08:02:09.844Z,2.20
2023-02-12T08:04:37.717Z,2.10
2023-02-12T08:07:05.652Z,1.60
2023-02-12T08:09:33.410Z,2.00
2023-02-12T08:12:01.150Z,2.80
2023-02-12T08:14:29.301Z,3.60
2023-02-12T08:16:57.343Z,2.80
2023-02-12T08:19:26.826Z,2.70
2023-02-12T08:21:56.977Z,2.00
2023-02-12T08:24:25.639Z,2.60
2023-02-12T08:26:53.780Z,2.20
2023-02-12T08:29:25.586Z,2.30
2023-02-12T08:31:59.143Z,1.10
2023-02-12T08:34:29.607Z,1.40
2023-02-12T08:36:58.098Z,2.40
2023-02-12T08:39:28.764Z,2.80
2023-02-12T08:41:58.623Z,1.40
2023-02-12T08:44:26.609Z,2.80
2023-02-12T08:46:55.763Z,2.00
2023-02-12T08:49:26.768Z,2.80
2023-02-12T08:51:56.683Z,1.30
2023-02-12T08:54:26.949Z,1.90
2023-02-12T08:56:56.759Z,1.90
2023-02-12T08:59:24.977Z,3.60
2023-02-12T09:01:53.745Z,2.50
2023-02-12T09:04:27.354Z,1.90
2023-02-12T09:06:55.808Z,2.30
2023-02-12T09:09:23.617Z,3.20
2023-02-12T09:11:51.556Z,3.60
2023-02-12T09:14:26.045Z,1.80
2023-02-12T09:16:55.034Z,1.80
2023-02-12T09:19:23.144Z,2.60
2023-02-12T09:21:55.569Z,2.50
2023-02-12T09:24:25.641Z,2.70
2023-02-12T09:26:53.464Z,2.20
2023-02-12T09:29:21.371Z,2.80
2023-02-12T09:31:49.218Z,2.40
2023-02-12T09:34:17.216Z,2.60
2023-02-12T09:36:45.053Z,3.10
2023-02-12T09:39:12.823Z,2.90
2023-02-12T09:41:59.019Z,3.00
2023-02-12T09:44:26.758Z,2.40
2023-02-12T09:47:17.714Z,1.60
2023-02-12T09:50:23.893Z,2.90
2023-02-12T09:52:54.723Z,3.00
2023-02-12T09:55:29.357Z,2.20
2023-02-12T09:57:57.377Z,2.20
2023-02-12T10:00:29.063Z,2.50
2023-02-12T10:03:01.732Z,3.40
2023-02-12T10:05:43.303Z,2.60
2023-02-12T10:08:14.290Z,1.90
2023-02-12T10:10:53.354Z,2.80
2023-02-12T10:13:39.333Z,3.20
2023-02-12T10:16:20.502Z,2.80
2023-02-12T10:18:59.940Z,2.40
2023-02-12T10:22:12.564Z,3.00
2023-02-12T10:27:38.199Z,5.10
2023-02-12T10:30:49.947Z,4.60
2023-02-12T10:33:26.909Z,2.30
2023-02-12T10:36:02.297Z,3.10
2023-02-12T10:38:36.432Z,3.00
2023-02-12T10:41:04.235Z,1.80
2023-02-12T10:43:32.567Z,2.90
2023-02-12T10:46:00.291Z,4.20
2023-02-12T10:48:36.932Z,2.70
2023-02-12T10:51:07.678Z,3.20
2023-02-12T10:53:38.600Z,3.20
2023-02-12T10:56:17.442Z,2.50
2023-02-12T10:58:59.716Z,4.10
2023-02-12T11:01:28.754Z,3.30
2023-02-12T11:03:58.817Z,3.20
2023-02-12T11:06:29.875Z,5.20
2023-02-12T11:08:59.112Z,3.90
2023-02-12T11:14:16.817Z,3.50
2023-02-12T11:16:56.803Z,4.50
2023-02-12T11:19:30.456Z,3.80
2023-02-12T11:22:11.263Z,2.50
2023-02-12T11:24:39.020Z,3.50
2023-02-12T11:27:15.617Z,2.40
2023-02-12T11:29:44.604Z,3.20
2023-02-12T11:32:18.469Z,3.90
2023-02-12T11:35:14.935Z,4.70
2023-02-12T11:37:44.760Z,3.80
2023-02-12T11:40:25.478Z,4.30
2023-02-12T11:42:59.398Z,4.60
2023-02-12T11:45:34.570Z,2.70
2023-02-12T11:48:03.041Z,3.90
2023-02-12T11:50:35.178Z,3.70
2023-02-12T11:53:09.442Z,4.30
2023-02-12T11:55:40.934Z,4.30
2023-02-12T11:58:20.831Z,3.80
2023-02-12T12:01:20.304Z,2.10
2023-02-12T12:04:09.972Z,4.80
2023-02-12T12:06:44.420Z,4.10
2023-02-12T12:09:29.128Z,4.50
2023-02-12T12:12:03.004Z,2.20
2023-02-12T12:15:01.058Z,6.50
2023-02-12T12:18:04.348Z,3.60
2023-02-12T12:20:39.231Z,2.80
2023-02-12T12:23:17.421Z,5.60
2023-02-12T12:25:56.156Z,2.80
2023-02-12T12:28:42.057Z,3.20
2023-02-12T12:31:17.305Z,3.80
2023-02-12T12:33:52.972Z,3.60
2023-02-12T12:36:51.905Z,3.40
2023-02-12T12:39:34.918Z,5.30
2023-02-12T12:42:02.699Z,3.70
2023-02-12T12:45:03.196Z,2.90
2023-02-12T12:50:21.993Z,3.80
2023-02-12T12:53:10.035Z,4.30
2023-02-12T12:56:15.153Z,3.30
2023-02-12T12:58:54.476Z,3.50
2023-02-12T13:01:36.364Z,3.60
2023-02-12T13:04:30.759Z,4.00
2023-02-12T13:07:32.603Z,4.30
2023-02-12T13:10:24.413Z,3.60
2023-02-12T13:13:01.366Z,3.50
2023-02-12T13:15:50.904Z,4.20
2023-02-12T13:18:36.746Z,4.30
2023-02-12T13:21:25.645Z,3.60
2023-02-12T13:24:02.558Z,3.00
2023-02-12T13:26:41.458Z,7.00
2023-02-12T13:29:19.107Z,5.10
2023-02-12T13:32:05.455Z,3.70
2023-02-12T13:34:36.715Z,4.30
2023-02-12T13:37:10.123Z,4.80
2023-02-12T13:39:41.601Z,2.80
2023-02-12T13:42:27.456Z,4.10
2023-02-12T13:45:07.715Z,2.80
2023-02-12T13:47:56.853Z,3.70
2023-02-12T13:50:43.264Z,5.90
2023-02-12T13:53:23.695Z,5.10
2023-02-12T13:55:54.618Z,4.50
2023-02-12T13:58:37.830Z,5.00
2023-02-12T14:01:12.563Z,7.50
2023-02-12T14:03:40.893Z,5.40
2023-02-12T14:06:18.113Z,6.00
2023-02-12T14:09:07.723Z,5.60
2023-02-12T14:11:48.571Z,4.20
2023-02-12T14:14:27.871Z,5.00
2023-02-12T14:16:55.634Z,4.60
2023-02-12T14:19:38.608Z,6.00
2023-02-12T14:22:32.844Z,6.80
2023-02-12T14:25:25.466Z,5.30
2023-02-12T14:27:55.432Z,5.20
2023-02-12T14:30:38.332Z,5.40
2023-02-12T14:33:06.736Z,4.40
2023-02-12T14:35:49.591Z,5.60
2023-02-12T14:38:19.805Z,4.80
2023-02-12T14:40:49.378Z,4.80
2023-02-12T14:43:56.973Z,3.30
2023-02-12T14:46:24.789Z,5.50
2023-02-12T14:49:05.913Z,8.30
2023-02-12T14:51:55.606Z,5.90
2023-02-12T14:54:37.086Z,3.60
2023-02-12T14:57:11.680Z,8.30
2023-02-12T14:59:43.580Z,8.10
2023-02-12T15:02:34.540Z,8.40
2023-02-12T15:05:06.857Z,6.60
2023-02-12T15:07:44.605Z,5.20
2023-02-12T15:10:20.262Z,7.40
2023-02-12T15:13:07.748Z,7.00
2023-02-12T15:15:49.306Z,4.60
2023-02-12T15:18:43.113Z,4.90
2023-02-12T15:21:23.037Z,6.40
2023-02-12T15:24:20.442Z,5.60
2023-02-12T15:26:51.690Z,7.80
2023-02-12T15:29:27.469Z,6.80
2023-02-12T15:31:59.032Z,7.30
2023-02-12T15:34:30.362Z,4.80
2023-02-12T15:37:01.828Z,7.00
2023-02-12T15:39:41.786Z,7.00
2023-02-12T15:42:37.908Z,6.70
2023-02-12T15:45:14.950Z,7.90
2023-02-12T15:47:44.919Z,9.00
2023-02-12T15:50:15.241Z,9.60
2023-02-12T15:52:46.416Z,7.20
2023-02-12T15:55:21.815Z,8.40
2023-02-12T15:57:58.477Z,9.10
2023-02-12T16:00:53.480Z,8.50
2023-02-12T16:03:36.297Z,7.20
2023-02-12T16:06:13.786Z,9.30
2023-02-12T16:08:45.604Z,11.50
2023-02-12T16:11:17.246Z,7.80
2023-02-12T16:13:59.427Z,9.00
2023-02-12T16:16:29.241Z,8.60
2023-02-12T16:19:20.388Z,12.40
2023-02-12T16:21:51.723Z,9.20
2023-02-12T16:24:49.557Z,9.60
2023-02-12T16:27:34.531Z,9.70
2023-02-12T16:30:06.184Z,13.20
2023-02-12T16:32:37.959Z,9.30
2023-02-12T16:35:12.097Z,11.10
2023-02-12T16:37:39.878Z,13.80
2023-02-12T16:40:23.116Z,13.10
2023-02-12T16:42:50.862Z,13.70
2023-02-12T16:45:27.703Z,17.50
2023-02-12T16:48:08.637Z,14.90
2023-02-12T16:50:43.471Z,13.50
2023-02-12T16:53:29.958Z,19.20
2023-02-12T16:55:59.054Z,24.60
2023-02-12T16:58:28.526Z,19.60
2023-02-12T17:00:59.352Z,23.90
2023-02-12T17:03:27.515Z,24.10
2023-02-12T17:05:55.857Z,23.70
2023-02-12T17:08:24.408Z,20.10
2023-02-12T17:10:52.419Z,20.20
2023-02-12T17:13:21.046Z,23.30
2023-02-12T17:15:58.309Z,19.70
2023-02-12T17:18:26.472Z,22.60
2023-02-12T17:20:57.789Z,20.20
2023-02-12T17:23:26.309Z,18.70
2023-02-12T17:25:54.820Z,19.40
2023-02-12T17:28:25.032Z,22.40
2023-02-12T17:30:54.069Z,23.70
2023-02-12T17:33:22.763Z,23.20
2023-02-12T17:35:50.558Z,19.60
2023-02-12T17:38:18.500Z,20.90
2023-02-12T17:40:46.316Z,19.20
2023-02-12T17:43:14.037Z,20.60
2023-02-12T17:45:43.372Z,22.40
2023-02-12T17:48:12.605Z,20.80
2023-02-12T17:50:40.905Z,25.20
2023-02-12T17:53:09.789Z,24.70
2023-02-12T17:55:41.333Z,24.00
2023-02-12T17:58:09.072Z,24.40
2023-02-12T18:00:36.874Z,20.60
2023-02-12T18:03:04.619Z,25.00
2023-02-12T18:05:32.506Z,19.90
2023-02-12T18:08:02.254Z,24.00
2023-02-12T18:10:30.088Z,29.10
2023-02-12T18:12:57.811Z,37.60
2023-02-12T18:15:25.516Z,38.70
2023-02-12T18:17:53.327Z,31.60
2023-02-12T18:20:21.238Z,29.40
2023-02-12T18:22:50.219Z,19.70
2023-02-12T18:25:18.964Z,16.20
2023-02-12T18:27:46.825Z,14.80
2023-02-12T18:30:15.120Z,14.10
2023-02-12T18:32:43.692Z,18.10
2023-02-12T18:35:11.657Z,16.00
2023-02-12T18:37:43.258Z,20.30
2023-02-12T18:40:12.148Z,16.60
2023-02-12T18:42:40.068Z,16.70
2023-02-12T18:45:08.369Z,13.50
2023-02-12T18:47:36.443Z,15.90
2023-02-12T18:50:04.563Z,16.10
2023-02-12T18:52:32.829Z,14.40
2023-02-12T18:55:00.749Z,14.40
2023-02-12T18:57:29.862Z,13.50
2023-02-12T18:59:57.707Z,14.90
2023-02-12T19:02:25.680Z,16.40
2023-02-12T19:04:53.798Z,16.50
2023-02-12T19:07:21.645Z,13.70
2023-02-12T19:09:49.754Z,13.10
2023-02-12T19:12:17.518Z,15.60
2023-02-12T19:14:45.734Z,13.70
2023-02-12T19:17:13.598Z,12.90
2023-02-12T19:19:41.478Z,13.30
2023-02-12T19:22:09.208Z,13.10
2023-02-12T19:24:46.166Z,13.50
2023-02-12T19:27:14.647Z,20.30
2023-02-12T19:29:42.380Z,16.80
2023-02-12T19:32:10.350Z,14.10
2023-02-12T19:34:38.365Z,15.10
2023-02-12T19:37:08.986Z,13.60
2023-02-12T19:39:38.019Z,15.40
2023-02-12T19:42:05.780Z,15.90
2023-02-12T19:44:33.565Z,16.60
2023-02-12T19:47:01.379Z,17.10
2023-02-12T19:49:29.242Z,14.20
2023-02-12T19:51:57.099Z,13.60
2023-02-12T19:54:25.270Z,15.50
2023-02-12T19:56:55.212Z,16.60
2023-02-12T19:59:25.395Z,12.10
2023-02-12T20:01:54.040Z,15.60
2023-02-12T20:04:23.802Z,14.80
2023-02-12T20:09:22.084Z,12.50
2023-02-12T20:11:50.761Z,14.40
2023-02-12T20:14:20.811Z,13.70
2023-02-12T20:16:50.407Z,15.10
2023-02-12T20:19:22.965Z,13.70
2023-02-12T20:21:55.331Z,12.50
2023-02-12T20:24:30.972Z,15.50
2023-02-12T20:27:00.972Z,14.20
2023-02-12T20:29:28.956Z,16.90
2023-02-12T20:31:57.256Z,15.70
2023-02-12T20:34:25.203Z,13.20
2023-02-12T20:36:53.952Z,15.70
2023-02-12T20:39:21.998Z,13.10
2023-02-12T20:41:50.129Z,15.60
2023-02-12T20:44:20.577Z,14.80
2023-02-12T20:46:52.504Z,14.00
2023-02-12T20:49:24.497Z,15.10
2023-02-12T20:51:52.749Z,14.30
2023-02-12T20:54:21.170Z,14.50
2023-02-12T20:56:50.359Z,12.60
2023-02-12T20:59:18.972Z,15.00
2023-02-12T21:01:47.498Z,12.80
2023-02-12T21:04:17.796Z,11.80
2023-02-12T21:06:45.954Z,13.50
2023-02-12T21:09:14.909Z,13.80
2023-02-12T21:11:45.683Z,14.60
2023-02-12T21:14:24.007Z,11.50
2023-02-12T21:16:54.681Z,13.80
2023-02-12T21:19:22.531Z,10.00
2023-02-12T21:21:50.266Z,15.30
2023-02-12T21:24:21.577Z,13.20
2023-02-12T21:26:50.826Z,14.00
2023-02-12T21:29:19.474Z,12.60
2023-02-12T21:31:49.643Z,12.30
2023-02-12T21:34:21.177Z,13.80
2023-02-12T21:36:50.401Z,15.40
2023-02-12T21:39:24.882Z,14.80
2023-02-12T21:41:55.525Z,10.00
2023-02-12T21:44:24.744Z,14.00
2023-02-12T21:46:53.102Z,18.40
2023-02-12T21:49:28.268Z,17.60
2023-02-12T21:52:04.426Z,19.70
2023-02-12T21:57:00.739Z,17.50
2023-02-12T21:59:31.758Z,15.20
2023-02-12T22:02:00.768Z,17.80
2023-02-12T22:04:29.240Z,14.70
2023-02-12T22:06:58.230Z,19.90
2023-02-12T22:09:26.165Z,17.10
2023-02-12T22:11:54.148Z,19.90
2023-02-12T22:14:22.602Z,19.70
2023-02-12T22:16:50.810Z,15.80
2023-02-12T22:19:18.708Z,14.60
2023-02-12T22:21:51.271Z,15.70
2023-02-12T22:24:20.015Z,16.10
2023-02-12T22:26:47.913Z,13.50
2023-02-12T22:29:16.274Z,13.90
2023-02-12T22:31:46.055Z,12.40
2023-02-12T22:34:17.073Z,12.10
2023-02-12T22:36:46.925Z,11.10
2023-02-12T22:39:15.380Z,13.90
2023-02-12T22:41:43.266Z,14.40
2023-02-12T22:44:12.982Z,13.70
2023-02-12T22:49:12.000Z,16.40
2023-02-12T22:51:40.460Z,10.50
2023-02-12T22:54:13.921Z,6.70
2023-02-12T22:56:42.090Z,10.70
2023-02-12T22:59:11.114Z,11.50
2023-02-12T23:01:40.011Z,13.50
2023-02-12T23:04:12.454Z,11.20
2023-02-12T23:06:40.296Z,13.80
2023-02-12T23:09:12.622Z,13.90
2023-02-12T23:11:40.544Z,17.30
2023-02-12T23:14:08.367Z,13.70
2023-02-12T23:16:36.170Z,14.50
2023-02-12T23:19:03.954Z,15.50
2023-02-12T23:21:32.565Z,13.50
2023-02-12T23:24:00.458Z,15.30
2023-02-12T23:26:29.600Z,16.70
2023-02-12T23:28:57.658Z,11.70
2023-02-12T23:31:25.976Z,17.10
2023-02-12T23:33:54.066Z,17.00
2023-02-12T23:36:21.949Z,13.60
2023-02-12T23:38:49.696Z,14.70
2023-02-12T23:41:17.754Z,14.10
2023-02-12T23:43:45.654Z,13.80
2023-02-12T23:46:13.438Z,18.70
2023-02-12T23:48:41.322Z,14.60
2023-02-12T23:51:09.272Z,13.20
2023-02-12T23:53:37.110Z,12.50
2023-02-12T23:56:04.996Z,14.30
2023-02-12T23:58:32.711Z,21.10
